createdAt,value
2022-10-14T00:01:26.617Z,11.60
2022-10-14T00:06:51.664Z,11.58
2022-10-14T00:12:16.556Z,11.61
2022-10-14T00:17:43.551Z,11.62
2022-10-14T00:23:08.563Z,11.63
2022-10-14T00:28:32.614Z,11.63
2022-10-14T00:34:06.623Z,11.61
2022-10-14T00:39:31.599Z,11.61
2022-10-14T00:45:15.565Z,11.60
2022-10-14T00:50:43.577Z,11.58
2022-10-14T00:56:08.594Z,11.59
2022-10-14T01:01:33.565Z,11.59
2022-10-14T01:07:23.939Z,11.59
2022-10-14T01:13:00.585Z,11.57
2022-10-14T01:18:35.616Z,11.57
2022-10-14T01:24:37.614Z,11.63
2022-10-14T01:30:27.613Z,11.66
2022-10-14T01:36:05.600Z,11.68
2022-10-14T01:41:35.587Z,11.72
2022-10-14T01:47:05.630Z,11.78
2022-10-14T01:52:34.612Z,11.80
2022-10-14T01:58:01.713Z,11.80
2022-10-14T02:03:29.636Z,11.84
2022-10-14T02:09:08.632Z,11.85
2022-10-14T02:14:49.591Z,11.85
2022-10-14T02:20:27.673Z,11.84
2022-10-14T02:25:56.633Z,11.85
2022-10-14T02:31:25.645Z,11.86
2022-10-14T02:36:54.627Z,11.86
2022-10-14T02:42:23.006Z,11.88
2022-10-14T02:47:47.686Z,11.83
2022-10-14T02:53:14.631Z,11.85
2022-10-14T02:58:39.231Z,11.83
2022-10-14T03:04:03.763Z,11.82
2022-10-14T03:09:30.767Z,11.83
2022-10-14T03:14:56.656Z,11.83
2022-10-14T03:20:22.659Z,11.83
2022-10-14T03:25:53.643Z,11.83
2022-10-14T03:31:26.780Z,11.84
2022-10-14T03:37:11.655Z,11.85
2022-10-14T03:42:43.681Z,11.83
2022-10-14T03:48:08.665Z,11.78
2022-10-14T03:53:32.706Z,11.76
2022-10-14T03:59:01.682Z,11.77
2022-10-14T04:04:27.688Z,11.76
2022-10-14T04:09:52.675Z,11.75
2022-10-14T04:15:20.679Z,11.76
2022-10-14T04:21:15.684Z,11.76
2022-10-14T04:26:42.706Z,11.74
2022-10-14T04:32:17.750Z,11.78
2022-10-14T04:37:42.692Z,11.75
2022-10-14T04:43:12.695Z,11.77
2022-10-14T04:48:39.687Z,11.76
2022-10-14T04:54:04.703Z,11.79
2022-10-14T04:59:41.725Z,11.78
2022-10-14T05:05:29.730Z,11.75
2022-10-14T05:10:56.743Z,11.76
2022-10-14T05:16:31.706Z,11.77
2022-10-14T05:22:00.721Z,11.76
2022-10-14T05:27:30.731Z,11.78
2022-10-14T05:33:01.741Z,11.77
2022-10-14T05:38:32.753Z,11.79
2022-10-14T05:43:56.749Z,11.80
2022-10-14T05:49:22.736Z,11.80
2022-10-14T05:54:51.751Z,11.82
2022-10-14T06:00:24.805Z,11.84
2022-10-14T06:05:55.736Z,11.85
2022-10-14T06:11:23.737Z,11.88
2022-10-14T06:16:47.776Z,11.90
2022-10-14T06:22:12.768Z,11.94
2022-10-14T06:27:39.830Z,11.94
2022-10-14T06:33:10.789Z,11.97
2022-10-14T06:38:36.777Z,12.00
2022-10-14T06:44:03.772Z,12.00
2022-10-14T06:49:28.771Z,12.04
2022-10-14T06:54:52.784Z,12.13
2022-10-14T07:00:21.755Z,12.20
2022-10-14T07:05:45.802Z,12.24
2022-10-14T07:11:10.788Z,12.28
2022-10-14T07:16:39.264Z,12.28
2022-10-14T07:22:03.787Z,12.37
2022-10-14T07:27:27.764Z,12.43
2022-10-14T07:32:55.798Z,12.48
2022-10-14T07:38:20.801Z,12.60
2022-10-14T07:43:45.795Z,12.66
2022-10-14T07:49:14.050Z,12.78
2022-10-14T07:54:40.818Z,12.85
2022-10-14T08:00:04.825Z,12.92
2022-10-14T08:05:39.000Z,12.99
2022-10-14T08:11:02.823Z,13.07
2022-10-14T08:16:29.830Z,13.15
2022-10-14T08:21:58.829Z,13.23
2022-10-14T08:27:24.840Z,13.30
2022-10-14T08:32:56.832Z,13.40
2022-10-14T08:38:23.836Z,13.53
2022-10-14T08:43:52.836Z,13.64
2022-10-14T08:49:26.837Z,13.72
2022-10-14T08:54:55.850Z,13.89
2022-10-14T09:00:22.840Z,14.00
2022-10-14T09:05:47.862Z,14.09
2022-10-14T09:11:17.021Z,14.22
2022-10-14T09:16:44.842Z,14.36
2022-10-14T09:22:10.866Z,14.40
2022-10-14T09:27:40.894Z,14.61
2022-10-14T09:33:12.855Z,14.74
2022-10-14T09:38:37.937Z,14.87
2022-10-14T09:44:34.862Z,15.04
2022-10-14T09:50:02.851Z,15.25
2022-10-14T09:55:35.875Z,15.38
2022-10-14T10:01:06.911Z,15.46
2022-10-14T10:06:40.871Z,15.54
2022-10-14T10:12:05.907Z,15.76
2022-10-14T10:17:36.917Z,15.77
2022-10-14T10:23:01.900Z,15.78
2022-10-14T10:28:37.946Z,15.82
2022-10-14T10:34:20.899Z,15.90
2022-10-14T10:39:57.890Z,16.02
2022-10-14T10:45:35.558Z,15.99
2022-10-14T10:51:10.029Z,15.94
2022-10-14T10:56:45.973Z,15.99
2022-10-14T11:02:33.956Z,15.95
2022-10-14T11:08:22.003Z,16.11
2022-10-14T11:13:56.248Z,16.26
2022-10-14T11:19:26.951Z,16.38
2022-10-14T11:25:04.982Z,16.43
2022-10-14T11:30:32.947Z,16.59
2022-10-14T11:36:06.961Z,16.56
2022-10-14T11:41:46.951Z,16.57
2022-10-14T11:47:16.956Z,16.56
2022-10-14T11:52:44.947Z,16.71
2022-10-14T11:58:15.953Z,16.86
2022-10-14T12:03:49.965Z,17.05
2022-10-14T12:09:20.942Z,17.04
2022-10-14T12:14:49.974Z,17.09
2022-10-14T12:20:28.980Z,17.18
2022-10-14T12:26:05.526Z,17.50
2022-10-14T12:31:44.126Z,17.50
2022-10-14T12:37:07.983Z,17.67
2022-10-14T12:42:32.985Z,17.54
2022-10-14T12:48:01.993Z,17.60
2022-10-14T12:53:32.979Z,17.52
2022-10-14T12:59:11.003Z,17.47
2022-10-14T13:04:42.966Z,17.38
2022-10-14T13:10:46.500Z,17.34
2022-10-14T13:16:13.017Z,17.32
2022-10-14T13:22:07.113Z,17.33
2022-10-14T13:27:43.019Z,17.23
2022-10-14T13:33:14.030Z,17.00
2022-10-14T13:38:44.200Z,17.05
2022-10-14T13:44:11.014Z,17.28
2022-10-14T13:49:44.078Z,17.52
2022-10-14T13:55:34.050Z,17.76
2022-10-14T14:01:12.066Z,17.46
2022-10-14T14:06:52.198Z,17.24
2022-10-14T14:12:29.048Z,17.21
2022-10-14T14:17:53.069Z,17.12
2022-10-14T14:23:22.050Z,17.11
2022-10-14T14:28:52.133Z,17.19
2022-10-14T14:34:23.064Z,17.28
2022-10-14T14:39:49.094Z,17.25
2022-10-14T14:45:20.071Z,17.33
2022-10-14T14:50:49.084Z,17.32
2022-10-14T14:56:18.156Z,17.21
2022-10-14T15:01:46.087Z,16.99
2022-10-14T15:07:21.462Z,16.89
2022-10-14T15:12:49.072Z,16.76
2022-10-14T15:18:31.725Z,16.60
2022-10-14T15:24:10.197Z,16.51
2022-10-14T15:29:37.522Z,16.45
2022-10-14T15:35:14.080Z,16.37
2022-10-14T15:40:41.176Z,16.22
2022-10-14T15:46:26.181Z,16.20
2022-10-14T15:51:54.128Z,16.14
2022-10-14T15:57:19.131Z,16.04
2022-10-14T16:02:44.126Z,15.97
2022-10-14T16:08:13.142Z,15.89
2022-10-14T16:13:38.105Z,15.86
2022-10-14T16:19:02.118Z,15.80
2022-10-14T16:24:27.145Z,15.73
2022-10-14T16:29:54.260Z,15.62
2022-10-14T16:35:25.129Z,15.54
2022-10-14T16:40:53.168Z,15.46
2022-10-14T16:46:18.153Z,15.37
2022-10-14T16:51:43.167Z,15.32
2022-10-14T16:57:10.222Z,15.24
2022-10-14T17:02:38.133Z,15.18
2022-10-14T17:08:02.150Z,15.14
2022-10-14T17:13:30.191Z,15.07
2022-10-14T17:18:54.172Z,15.02
2022-10-14T17:24:19.182Z,14.97
2022-10-14T17:29:46.498Z,14.94
2022-10-14T17:35:17.158Z,14.90
2022-10-14T17:40:42.186Z,14.85
2022-10-14T17:46:09.178Z,14.81
2022-10-14T17:51:35.201Z,14.75
2022-10-14T17:56:59.362Z,14.73
2022-10-14T18:02:28.211Z,14.72
2022-10-14T18:07:53.202Z,14.67
2022-10-14T18:13:20.201Z,14.65
2022-10-14T18:18:47.225Z,14.60
2022-10-14T18:24:13.183Z,14.56
2022-10-14T18:29:37.211Z,14.51
2022-10-14T18:35:12.222Z,14.50
2022-10-14T18:40:37.198Z,14.46
2022-10-14T18:46:01.227Z,14.44
2022-10-14T18:51:32.238Z,14.44
2022-10-14T18:56:57.226Z,14.44
2022-10-14T19:02:23.548Z,14.47
2022-10-14T19:07:50.224Z,14.43
2022-10-14T19:13:16.213Z,14.45
2022-10-14T19:18:40.239Z,14.38
2022-10-14T19:24:09.243Z,14.33
2022-10-14T19:29:33.233Z,14.29
2022-10-14T19:35:04.232Z,14.30
2022-10-14T19:40:31.793Z,14.29
2022-10-14T19:45:56.241Z,14.29
2022-10-14T19:51:21.262Z,14.25
2022-10-14T19:56:50.834Z,14.25
2022-10-14T20:02:15.665Z,14.22
2022-10-14T20:07:39.295Z,14.17
2022-10-14T20:13:08.257Z,14.16
2022-10-14T20:18:32.273Z,14.12
2022-10-14T20:23:57.636Z,14.13
2022-10-14T20:29:24.618Z,14.09
2022-10-14T20:34:49.334Z,14.08
2022-10-14T20:40:13.373Z,14.08
2022-10-14T20:45:48.262Z,14.06
2022-10-14T20:51:14.290Z,14.07
2022-10-14T20:56:39.276Z,14.01
2022-10-14T21:02:06.284Z,14.05
2022-10-14T21:07:31.285Z,14.03
2022-10-14T21:12:56.262Z,14.01
2022-10-14T21:18:24.394Z,14.00
2022-10-14T21:23:49.302Z,14.02
2022-10-14T21:29:15.313Z,14.02
2022-10-14T21:34:43.319Z,14.05
2022-10-14T21:40:07.278Z,14.02
2022-10-14T21:45:32.311Z,14.03
2022-10-14T21:50:59.285Z,14.01
2022-10-14T21:56:25.298Z,14.02
2022-10-14T22:01:50.297Z,14.01
2022-10-14T22:07:17.339Z,14.00
2022-10-14T22:12:41.289Z,13.99
2022-10-14T22:18:06.308Z,13.98
2022-10-14T22:23:33.343Z,13.98
2022-10-14T22:28:58.384Z,13.96
2022-10-14T22:34:31.319Z,13.95
2022-10-14T22:39:59.460Z,13.96
2022-10-14T22:45:25.359Z,13.94
2022-10-14T22:50:50.343Z,13.93
2022-10-14T22:56:18.350Z,13.92
2022-10-14T23:01:43.364Z,13.95
2022-10-14T23:07:07.357Z,13.94
2022-10-14T23:12:35.359Z,13.96
2022-10-14T23:17:59.487Z,13.97
2022-10-14T23:23:24.367Z,13.96
2022-10-14T23:28:51.439Z,13.97
2022-10-14T23:34:25.403Z,13.95
2022-10-14T23:39:50.431Z,13.97
2022-10-14T23:45:18.357Z,13.97
2022-10-14T23:50:43.506Z,13.94
2022-10-14T23:56:08.467Z,13.94
